Time;durP1;ratioP1;P1;durP2;ratioP2;P2;SDS_P1;SDS_P2;PMS_P1;PMS_P2;Temp;Humidity;BMP_temperature;BMP_pressure;BME280_temperature;BME280_humidity;BME280_pressure;Samples;Min_cycle;Max_cycle;Signal;HPM_P1;HPM_P2
2022/05/14 00:02:10;;;;;;;21.20;12.05;;;;;;;16.80;100.00;100678.09;1777868;80;21052;-60
2022/05/14 00:04:38;;;;;;;20.10;12.70;;;;;;;16.78;100.00;100681.27;1777778;81;21512;-60
2022/05/14 00:07:05;;;;;;;23.40;12.98;;;;;;;16.62;100.00;100685.36;1778078;81;21016;-60
2022/05/14 00:09:32;;;;;;;22.95;13.03;;;;;;;16.57;100.00;100689.57;1777756;81;21060;-60
2022/05/14 00:14:47;;;;;;;20.43;11.03;;;;;;;16.61;100.00;100694.93;1777073;81;21083;-61
2022/05/14 00:17:14;;;;;;;23.57;12.40;;;;;;;16.73;100.00;100707.58;1777877;81;21515;-60
2022/05/14 00:19:41;;;;;;;26.50;12.58;;;;;;;16.61;100.00;100736.98;1777662;81;21075;-60
2022/05/14 00:22:08;;;;;;;25.85;13.62;;;;;;;16.56;100.00;100746.84;1778012;81;21563;-60
2022/05/14 00:24:37;;;;;;;21.73;13.65;;;;;;;16.62;100.00;100749.03;1777769;81;21091;-60
2022/05/14 00:27:04;;;;;;;27.67;14.00;;;;;;;16.56;100.00;100737.74;1777732;81;21063;-60
2022/05/14 00:29:32;;;;;;;26.60;13.43;;;;;;;18.05;100.00;100738.49;1778139;81;21039;-60
2022/05/14 00:31:59;;;;;;;21.95;13.13;;;;;;;17.52;100.00;100732.20;1777934;81;21512;-60
2022/05/14 00:34:26;;;;;;;24.12;13.93;;;;;;;17.33;100.00;100723.52;1778005;81;21075;-60
2022/05/14 00:36:54;;;;;;;25.97;13.60;;;;;;;17.35;100.00;100719.86;1777630;81;21035;-60
2022/05/14 00:39:21;;;;;;;24.95;13.83;;;;;;;17.30;100.00;100707.66;1777865;81;21059;-60
2022/05/14 00:41:49;;;;;;;24.55;13.35;;;;;;;17.45;100.00;100698.42;1777758;81;21047;-60
2022/05/14 00:44:17;;;;;;;24.02;13.35;;;;;;;17.36;100.00;100688.20;1777972;81;21085;-60
2022/05/14 00:46:55;;;;;;;22.35;12.98;;;;;;;17.56;100.00;100665.98;1777767;81;21008;-59
2022/05/14 00:49:24;;;;;;;23.40;12.18;;;;;;;16.56;100.00;100639.81;1777014;80;21000;-60
2022/05/14 00:51:51;;;;;;;22.00;12.30;;;;;;;16.56;100.00;100634.61;1777871;81;20998;-60
2022/05/14 00:54:39;;;;;;;19.77;11.63;;;;;;;17.15;100.00;100647.13;1777697;81;21023;-60
2022/05/14 00:57:11;;;;;;;21.85;11.12;;;;;;;16.39;100.00;100638.34;1777619;80;21000;-60
2022/05/14 00:59:38;;;;;;;19.95;11.50;;;;;;;16.21;100.00;100634.38;1778069;81;21040;-60
2022/05/14 01:02:06;;;;;;;20.20;10.70;;;;;;;16.35;100.00;100629.09;1777818;81;21500;-60
2022/05/14 01:04:34;;;;;;;27.95;11.45;;;;;;;16.39;100.00;100637.05;1778107;81;21452;-60
2022/05/14 01:07:11;;;;;;;22.60;11.50;;;;;;;16.30;100.00;100626.44;1777913;81;21062;-60
2022/05/14 01:09:44;;;;;;;19.65;10.98;;;;;;;16.25;100.00;100622.84;1777987;81;21543;-60
2022/05/14 01:12:13;;;;;;;19.85;11.35;;;;;;;16.33;100.00;100623.65;1778330;79;21051;-60
2022/05/14 01:14:41;;;;;;;19.67;10.48;;;;;;;16.59;100.00;100634.90;1755694;81;21055;-60
2022/05/14 01:17:09;;;;;;;19.40;10.80;;;;;;;16.35;100.00;100640.79;1777960;81;20996;-60
2022/05/14 01:19:38;;;;;;;20.35;11.43;;;;;;;16.38;100.00;100633.25;1777708;81;21094;-60
2022/05/14 01:22:34;;;;;;;20.17;11.10;;;;;;;17.71;100.00;100631.02;1777713;81;21051;-60
2022/05/14 01:28:33;;;;;;;22.85;10.75;;;;;;;16.60;100.00;100603.59;1778052;81;21057;-59
2022/05/14 01:31:01;;;;;;;20.08;10.72;;;;;;;16.14;100.00;100592.84;1777580;81;21449;-60
2022/05/14 01:33:29;;;;;;;21.40;11.10;;;;;;;15.98;100.00;100581.36;1777823;81;20972;-60
2022/05/14 01:35:57;;;;;;;21.07;10.95;;;;;;;17.23;100.00;100584.12;1755508;81;21044;-60
2022/05/14 01:38:25;;;;;;;18.85;10.68;;;;;;;17.10;100.00;100578.16;1777906;81;21031;-60
2022/05/14 01:40:53;;;;;;;23.10;10.58;;;;;;;17.11;100.00;100570.25;1777679;81;21012;-60
2022/05/14 01:43:20;;;;;;;21.68;10.75;;;;;;;16.98;100.00;100562.45;1778113;81;20993;-60
2022/05/14 01:45:48;;;;;;;18.07;9.73;;;;;;;15.99;100.00;100550.55;1755941;81;21023;-60
2022/05/14 01:48:15;;;;;;;15.30;9.53;;;;;;;15.51;100.00;100539.80;1777675;81;21016;-59
2022/05/14 01:50:43;;;;;;;16.27;8.98;;;;;;;15.49;100.00;100520.91;1777911;81;21138;-60
2022/05/14 01:53:10;;;;;;;14.75;8.10;;;;;;;15.71;100.00;100517.28;1777666;81;21520;-60
2022/05/14 01:55:38;;;;;;;13.72;7.70;;;;;;;15.54;100.00;100508.02;1777310;80;21060;-60
2022/05/14 02:00:54;;;;;;;12.40;7.25;;;;;;;15.27;100.00;100485.14;1770302;81;21488;-60
2022/05/14 02:03:21;;;;;;;13.13;6.85;;;;;;;15.08;100.00;100469.46;1770458;81;21034;-60
2022/05/14 02:05:48;;;;;;;10.75;6.90;;;;;;;15.13;100.00;100467.89;1769956;81;21035;-60
2022/05/14 02:08:15;;;;;;;12.33;6.15;;;;;;;15.12;100.00;100461.03;1770099;81;21058;-60
2022/05/14 02:10:42;;;;;;;10.50;6.22;;;;;;;15.12;100.00;100480.48;1770043;80;21122;-60
2022/05/14 02:13:11;;;;;;;13.72;6.62;;;;;;;15.27;100.00;100504.15;1750659;81;21035;-60
2022/05/14 02:15:40;;;;;;;9.38;6.30;;;;;;;15.47;100.00;100526.66;1770434;81;21040;-60
2022/05/14 02:18:08;;;;;;;17.02;6.30;;;;;;;15.69;100.00;100530.83;1750747;81;21043;-60
2022/05/14 02:20:35;;;;;;;8.90;6.10;;;;;;;15.71;100.00;100536.75;1770437;81;21035;-60
2022/05/14 02:23:03;;;;;;;9.50;6.47;;;;;;;15.74;100.00;100537.06;1770253;81;21039;-61
2022/05/14 02:25:30;;;;;;;13.50;6.22;;;;;;;15.88;100.00;100533.58;1770380;81;21058;-60
2022/05/14 02:27:58;;;;;;;12.75;6.10;;;;;;;15.99;100.00;100537.09;1770191;81;21008;-60
2022/05/14 02:30:25;;;;;;;7.05;5.22;;;;;;;16.00;100.00;100539.25;1770463;81;21073;-61
2022/05/14 02:32:53;;;;;;;10.35;6.00;;;;;;;15.91;100.00;100543.73;1770235;81;21079;-60
2022/05/14 02:35:20;;;;;;;9.45;5.42;;;;;;;16.34;100.00;100548.21;1770401;81;21038;-61
2022/05/14 02:37:48;;;;;;;12.25;5.83;;;;;;;16.09;100.00;100549.01;1770235;81;21008;-60
2022/05/14 02:40:15;;;;;;;9.60;5.67;;;;;;;15.92;100.00;100548.02;1770214;81;21074;-60
2022/05/14 02:42:44;;;;;;;8.13;5.78;;;;;;;16.06;100.00;100549.67;1770354;81;21035;-60
2022/05/14 02:45:12;;;;;;;11.50;5.42;;;;;;;15.94;100.00;100548.75;1770107;81;21016;-60
2022/05/14 02:47:39;;;;;;;7.60;5.60;;;;;;;15.88;100.00;100552.56;1770386;81;21042;-60
2022/05/14 02:50:09;;;;;;;14.23;5.40;;;;;;;17.20;100.00;100568.76;1770112;81;21487;-60
2022/05/14 02:52:37;;;;;;;8.73;5.30;;;;;;;16.21;100.00;100568.97;1751069;81;21499;-60
2022/05/14 02:55:06;;;;;;;10.82;5.67;;;;;;;15.93;100.00;100559.57;1770033;81;21035;-60
2022/05/14 02:57:34;;;;;;;10.05;5.55;;;;;;;15.94;100.00;100548.27;1770194;80;21086;-60
2022/05/14 03:00:03;;;;;;;9.30;5.22;;;;;;;15.96;100.00;100540.39;1770453;81;21008;-60
2022/05/14 03:02:30;;;;;;;6.78;5.25;;;;;;;15.90;100.00;100542.09;1770541;81;21507;-60
2022/05/14 03:04:58;;;;;;;8.90;5.17;;;;;;;15.97;100.00;100540.73;1770174;81;21499;-60
2022/05/14 03:07:25;;;;;;;7.35;5.08;;;;;;;16.02;100.00;100537.38;1770067;81;21015;-60
2022/05/14 03:09:53;;;;;;;8.33;5.20;;;;;;;15.95;100.00;100532.22;1770434;81;21020;-60
2022/05/14 03:12:22;;;;;;;5.83;4.25;;;;;;;15.95;100.00;100525.25;1770173;80;21145;-60
2022/05/14 03:14:50;;;;;;;7.92;4.87;;;;;;;15.84;100.00;100529.52;1770312;81;21027;-60
2022/05/14 03:17:18;;;;;;;6.78;4.20;;;;;;;15.98;100.00;100528.14;1770072;81;21046;-59
2022/05/14 03:19:46;;;;;;;7.20;4.05;;;;;;;15.77;100.00;100521.28;1770442;81;21010;-60
2022/05/14 03:22:13;;;;;;;6.50;3.98;;;;;;;15.72;100.00;100522.03;1770175;81;21082;-60
2022/05/14 03:24:41;;;;;;;9.38;4.40;;;;;;;15.71;100.00;100518.58;1770172;81;21027;-60
2022/05/14 03:27:10;;;;;;;4.97;4.08;;;;;;;15.83;100.00;100526.06;1770300;81;21066;-60
2022/05/14 03:29:38;;;;;;;5.53;3.67;;;;;;;15.76;100.00;100528.24;1770156;81;21023;-61
2022/05/14 03:32:07;;;;;;;6.33;3.80;;;;;;;15.78;100.00;100532.05;1770277;81;21023;-60
2022/05/14 03:34:36;;;;;;;5.70;4.03;;;;;;;15.73;100.00;100537.51;1770401;81;21012;-60
2022/05/14 03:37:04;;;;;;;5.15;3.62;;;;;;;15.67;100.00;100531.86;1770363;81;21011;-60
2022/05/14 03:39:32;;;;;;;7.08;3.55;;;;;;;15.68;100.00;100536.14;1770190;81;21031;-60
2022/05/14 03:41:59;;;;;;;5.70;3.70;;;;;;;15.81;100.00;100539.17;1770383;81;21019;-61
2022/05/14 03:44:27;;;;;;;6.75;3.50;;;;;;;15.84;100.00;100536.00;1770078;81;21097;-60
2022/05/14 03:46:54;;;;;;;5.00;3.40;;;;;;;15.94;100.00;100530.57;1770056;81;21110;-60
2022/05/14 03:49:21;;;;;;;6.15;3.58;;;;;;;16.00;100.00;100525.80;1770301;81;21035;-60
2022/05/14 03:51:49;;;;;;;8.13;3.80;;;;;;;16.11;100.00;100527.66;1770154;81;21003;-60
2022/05/14 03:54:16;;;;;;;3.90;3.50;;;;;;;16.19;100.00;100531.87;1770382;81;21035;-60
2022/05/14 03:56:43;;;;;;;6.05;3.25;;;;;;;16.41;100.00;100540.83;1770001;80;21098;-60
2022/05/14 03:59:12;;;;;;;5.92;3.55;;;;;;;16.46;100.00;100527.04;1770031;81;21031;-60
2022/05/14 04:01:40;;;;;;;10.70;3.80;;;;;;;16.49;100.00;100523.42;1770403;81;21103;-60
2022/05/14 04:04:07;;;;;;;4.83;3.52;;;;;;;16.38;100.00;100512.44;1770299;81;21015;-60
2022/05/14 04:06:36;;;;;;;7.15;3.83;;;;;;;16.52;100.00;100502.41;1750821;81;21539;-61
2022/05/14 04:09:03;;;;;;;6.50;3.40;;;;;;;16.20;100.00;100494.59;1770138;81;20995;-60
2022/05/14 04:11:31;;;;;;;5.45;3.47;;;;;;;16.41;100.00;100499.26;1769992;80;21070;-61
2022/05/14 04:13:58;;;;;;;6.05;3.98;;;;;;;16.86;100.00;100499.62;1770259;81;21455;-60
2022/05/14 04:16:25;;;;;;;13.20;3.75;;;;;;;16.90;100.00;100495.03;1770175;81;21094;-61
2022/05/14 04:18:52;;;;;;;7.58;3.75;;;;;;;17.35;100.00;100503.90;1770081;81;21035;-62
2022/05/14 04:21:20;;;;;;;4.78;3.62;;;;;;;17.15;100.00;100511.01;1770299;81;21086;-61
2022/05/14 04:23:47;;;;;;;4.58;3.27;;;;;;;17.25;100.00;100511.19;1770046;81;21051;-60
2022/05/14 04:26:15;;;;;;;5.85;3.30;;;;;;;17.65;100.00;100507.81;1770283;81;21503;-61
2022/05/14 04:28:43;;;;;;;9.75;3.75;;;;;;;17.71;100.00;100500.84;1770105;81;21516;-60
2022/05/14 04:31:11;;;;;;;6.22;3.40;;;;;;;17.48;100.00;100504.30;1769976;81;21547;-61
2022/05/14 04:33:38;;;;;;;4.90;3.17;;;;;;;17.55;100.00;100500.32;1770255;81;20988;-60
2022/05/14 04:36:06;;;;;;;4.08;3.08;;;;;;;17.24;100.00;100512.97;1770099;81;20992;-60
2022/05/14 04:38:36;;;;;;;4.37;3.47;;;;;;;17.72;100.00;100509.48;1770330;81;21031;-61
2022/05/14 04:41:03;;;;;;;4.87;3.58;;;;;;;17.79;100.00;100506.31;1770091;81;21075;-61
2022/05/14 04:43:31;;;;;;;7.25;3.40;;;;;;;17.58;100.00;100509.22;1770324;81;20995;-61
2022/05/14 04:45:58;;;;;;;5.90;3.10;;;;;;;17.96;100.00;100508.16;1770000;81;21055;-61
2022/05/14 04:48:26;;;;;;;7.40;3.35;;;;;;;18.11;100.00;100522.64;1770256;81;21055;-61
2022/05/14 04:50:55;;;;;;;5.80;3.58;;;;;;;17.79;100.00;100514.13;1770188;81;21511;-61
2022/05/14 04:53:22;;;;;;;4.95;3.05;;;;;;;17.87;100.00;100515.37;1770179;81;21003;-61
2022/05/14 04:55:50;;;;;;;4.12;2.92;;;;;;;17.55;100.00;100511.55;1770053;81;21511;-61
2022/05/14 04:58:17;;;;;;;5.97;2.77;;;;;;;17.89;100.00;100510.41;1776625;80;21094;-61
2022/05/14 05:00:45;;;;;;;6.25;3.30;;;;;;;17.64;100.00;100507.47;1777615;81;21052;-61
2022/05/14 05:03:22;;;;;;;5.53;3.08;;;;;;;17.76;100.00;100509.16;1747262;81;21498;-61
2022/05/14 05:05:59;;;;;;;4.90;3.00;;;;;;;17.65;100.00;100510.41;1758805;81;21537;-61
2022/05/14 05:08:31;;;;;;;7.33;3.50;;;;;;;17.72;100.00;100522.05;1761069;81;21350;-61
2022/05/14 05:10:59;;;;;;;6.30;3.30;;;;;;;17.72;100.00;100520.75;1762525;81;21044;-60
2022/05/14 05:13:29;;;;;;;5.70;3.05;;;;;;;17.85;100.00;100517.27;1763792;81;21400;-60
2022/05/14 05:15:58;;;;;;;5.25;2.90;;;;;;;18.07;100.00;100517.31;1762191;81;20997;-60
2022/05/14 05:18:25;;;;;;;5.10;3.00;;;;;;;17.96;100.00;100509.46;1760871;81;21040;-60
2022/05/14 05:20:55;;;;;;;5.40;3.10;;;;;;;17.93;100.00;100517.04;1757410;81;21009;-61
2022/05/14 05:23:25;;;;;;;5.45;3.20;;;;;;;17.97;100.00;100508.05;1761709;81;21039;-60
2022/05/14 05:25:54;;;;;;;5.42;3.20;;;;;;;18.16;100.00;100508.78;1763804;81;20980;-61
2022/05/14 05:28:23;;;;;;;4.60;3.27;;;;;;;18.00;100.00;100513.49;1765023;81;21449;-61
2022/05/14 05:30:50;;;;;;;6.62;2.98;;;;;;;18.09;100.00;100514.11;1768501;81;20969;-61
2022/05/14 05:36:15;;;;;;;5.17;2.80;;;;;;;18.16;100.00;100524.41;1728335;82;21064;-61
2022/05/14 05:38:42;;;;;;;5.75;3.10;;;;;;;17.97;100.00;100522.38;1723883;81;21516;-62
2022/05/14 05:41:10;;;;;;;7.70;3.20;;;;;;;17.82;100.00;100519.57;1730987;82;21013;-61
2022/05/14 05:43:37;;;;;;;4.15;2.95;;;;;;;17.55;100.00;100514.16;1727133;82;20980;-61
2022/05/14 05:46:04;;;;;;;5.58;3.35;;;;;;;17.75;100.00;100518.37;1728208;82;21474;-60
2022/05/14 05:48:31;;;;;;;5.87;3.55;;;;;;;18.04;100.00;100516.22;1733891;82;21007;-61
2022/05/14 05:50:58;;;;;;;6.25;3.20;;;;;;;18.27;100.00;100516.25;1730103;82;21060;-60
2022/05/14 05:59:31;;;;;;;5.58;3.00;;;;;;;17.97;100.00;100505.92;1746831;82;21098;-61
2022/05/14 06:02:10;;;;;;;4.22;2.90;;;;;;;17.96;100.00;100510.77;1736072;82;21161;-61
2022/05/14 06:04:38;;;;;;;4.72;3.10;;;;;;;17.97;100.00;100500.72;1740724;82;21516;-60
2022/05/14 06:07:05;;;;;;;6.20;3.55;;;;;;;18.09;100.00;100497.19;1711535;82;21079;-61
2022/05/14 06:09:33;;;;;;;5.47;3.08;;;;;;;18.24;100.00;100499.56;1711158;84;21414;-61
2022/05/14 06:12:01;;;;;;;8.05;4.15;;;;;;;18.42;100.00;100498.97;1711300;84;21136;-60
2022/05/14 06:14:29;;;;;;;5.28;3.58;;;;;;;18.77;100.00;100493.26;1754390;81;21044;-60
2022/05/14 06:16:56;;;;;;;5.58;3.10;;;;;;;19.07;100.00;100490.51;1761596;80;21040;-61
2022/05/14 06:19:23;;;;;;;4.47;2.90;;;;;;;19.22;100.00;100495.78;1761365;81;21032;-61
2022/05/14 06:21:51;;;;;;;4.45;3.05;;;;;;;19.39;100.00;100490.04;1763566;81;20992;-62
2022/05/14 06:24:21;;;;;;;6.58;3.02;;;;;;;19.56;100.00;100487.83;1761930;81;20982;-61
2022/05/14 06:26:56;;;;;;;4.47;2.95;;;;;;;19.66;100.00;100495.73;1699254;82;21031;-60
2022/05/14 06:29:23;;;;;;;5.03;2.77;;;;;;;19.91;100.00;100486.70;1694285;84;21026;-60
2022/05/14 06:31:50;;;;;;;4.53;2.90;;;;;;;20.27;100.00;100485.87;1763140;81;20952;-60
2022/05/14 06:34:17;;;;;;;4.60;2.70;;;;;;;20.43;100.00;100484.08;1761832;81;21009;-60
2022/05/14 06:36:45;;;;;;;6.65;2.50;;;;;;;20.17;100.00;100484.05;1760977;81;20996;-60
2022/05/14 06:39:13;;;;;;;3.50;2.60;;;;;;;19.94;100.00;100498.22;1756754;81;21045;-60
2022/05/14 06:41:41;;;;;;;5.35;2.62;;;;;;;19.92;100.00;100498.83;1762109;81;21056;-60
2022/05/14 06:44:08;;;;;;;3.47;2.45;;;;;;;19.82;100.00;100496.15;1763519;81;21603;-60
2022/05/14 06:46:36;;;;;;;5.70;2.62;;;;;;;19.59;100.00;100499.34;1761573;81;21012;-60
2022/05/14 06:49:04;;;;;;;6.58;2.50;;;;;;;19.51;100.00;100485.59;1761581;81;20964;-60
2022/05/14 06:51:32;;;;;;;5.05;2.50;;;;;;;19.09;100.00;100489.91;1763842;81;21051;-62
2022/05/14 06:54:08;;;;;;;4.95;2.30;;;;;;;19.00;100.00;100487.58;1731771;81;20980;-60
2022/05/14 06:56:40;;;;;;;4.62;2.70;;;;;;;18.81;100.00;100486.88;1760106;81;21013;-60
2022/05/14 06:59:08;;;;;;;4.72;3.12;;;;;;;18.90;100.00;100473.61;1760036;81;21429;-60
2022/05/14 07:01:38;;;;;;;5.58;3.30;;;;;;;19.21;100.00;100478.48;1762814;81;21002;-61
2022/05/14 07:06:55;;;;;;;4.12;2.45;;;;;;;19.35;100.00;100487.81;1760255;81;21060;-61
2022/05/14 07:09:28;;;;;;;3.98;2.50;;;;;;;18.58;100.00;100489.48;1760235;81;20970;-61
2022/05/14 07:12:00;;;;;;;6.95;3.10;;;;;;;18.41;100.00;100492.11;1747158;82;21077;-60
2022/05/14 07:14:28;;;;;;;5.37;3.00;;;;;;;18.41;100.00;100486.91;1755966;81;20993;-60
2022/05/14 07:16:55;;;;;;;5.65;3.00;;;;;;;18.45;100.00;100486.20;1717827;82;22243;-60
2022/05/14 07:19:23;;;;;;;6.17;2.50;;;;;;;18.74;100.00;100484.39;1751774;81;21018;-60
2022/05/14 07:21:53;;;;;;;5.50;2.70;;;;;;;18.86;100.00;100478.72;1764852;81;21013;-61
2022/05/14 07:24:24;;;;;;;5.08;2.80;;;;;;;18.88;100.00;100475.03;1757130;81;21569;-60
2022/05/14 07:26:54;;;;;;;6.33;2.80;;;;;;;18.93;100.00;100479.88;1761625;81;20936;-61
2022/05/14 07:29:24;;;;;;;6.92;2.85;;;;;;;18.98;100.00;100487.69;1763397;81;21004;-60
2022/05/14 07:31:52;;;;;;;6.12;2.75;;;;;;;19.05;100.00;100495.84;1771936;81;20992;-60
2022/05/14 07:34:20;;;;;;;4.95;2.58;;;;;;;19.32;100.00;100502.40;1777775;81;20988;-60
2022/05/14 07:36:58;;;;;;;3.87;2.30;;;;;;;19.01;100.00;100499.16;1755745;81;21352;-60
2022/05/14 07:39:34;;;;;;;5.10;2.65;;;;;;;18.79;100.00;100500.03;1774046;80;21539;-60
2022/05/14 07:42:05;;;;;;;3.35;2.47;;;;;;;18.75;100.00;100501.67;1777673;80;21043;-60
2022/05/14 07:44:37;;;;;;;5.00;2.83;;;;;;;18.80;100.00;100500.89;1778081;81;21555;-60
2022/05/14 07:47:07;;;;;;;4.03;2.87;;;;;;;18.81;100.00;100494.70;1757955;81;21013;-60
2022/05/14 07:49:37;;;;;;;3.92;2.60;;;;;;;18.69;100.00;100495.16;1777030;81;21015;-60
2022/05/14 07:52:06;;;;;;;4.95;2.52;;;;;;;18.64;100.00;100496.49;1778049;81;21503;-60
2022/05/14 07:54:33;;;;;;;6.05;2.72;;;;;;;18.57;100.00;100502.64;1777820;81;21028;-61
2022/05/14 07:57:02;;;;;;;4.22;2.72;;;;;;;18.54;100.00;100503.71;1777360;81;21118;-60
2022/05/14 07:59:29;;;;;;;5.70;2.65;;;;;;;18.49;100.00;100506.31;1769317;80;21016;-61
2022/05/14 08:01:56;;;;;;;6.47;3.02;;;;;;;18.45;100.00;100509.66;1769444;81;21094;-61
2022/05/14 08:04:23;;;;;;;4.67;2.70;;;;;;;18.48;100.00;100508.58;1769274;81;21042;-60
2022/05/14 08:06:51;;;;;;;4.33;2.80;;;;;;;18.67;100.00;100501.45;1769517;81;21031;-61
2022/05/14 08:09:18;;;;;;;4.67;2.60;;;;;;;19.06;100.00;100504.04;1769276;81;21043;-60
2022/05/14 08:11:46;;;;;;;7.03;3.08;;;;;;;19.20;100.00;100507.67;1769183;80;21559;-61
2022/05/14 08:14:14;;;;;;;4.97;2.20;;;;;;;19.17;100.00;100506.59;1769001;81;21503;-61
2022/05/14 08:16:41;;;;;;;4.35;2.70;;;;;;;19.27;100.00;100515.83;1769171;81;22259;-60
2022/05/14 08:19:10;;;;;;;3.62;2.58;;;;;;;19.20;100.00;100519.88;1769305;81;21578;-60
2022/05/14 08:24:34;;;;;;;5.83;2.80;;;;;;;18.95;100.00;100546.61;1769267;81;21078;-61
2022/05/14 08:27:06;;;;;;;5.28;2.72;;;;;;;18.53;100.00;100554.66;1769145;81;21542;-61
2022/05/14 08:29:33;;;;;;;4.42;2.87;;;;;;;18.03;100.00;100569.77;1769436;81;21035;-62
2022/05/14 08:32:00;;;;;;;6.55;3.40;;;;;;;17.89;100.00;100579.89;1754670;81;21029;-61
2022/05/14 08:34:28;;;;;;;6.00;3.50;;;;;;;17.66;100.00;100566.76;1738985;82;21107;-60
2022/05/14 08:36:55;;;;;;;7.30;3.50;;;;;;;17.43;100.00;100557.99;1738763;82;21071;-61
2022/05/14 08:39:23;;;;;;;8.30;4.40;;;;;;;17.41;100.00;100522.97;1739072;82;21036;-60
2022/05/14 08:41:52;;;;;;;7.78;4.62;;;;;;;17.65;100.00;100501.78;1738787;82;21048;-61
2022/05/14 08:44:25;;;;;;;9.80;4.80;;;;;;;17.68;100.00;100490.68;1739013;82;21568;-60
2022/05/14 08:46:56;;;;;;;7.75;4.85;;;;;;;17.85;100.00;100489.92;1738735;82;21060;-59
2022/05/14 08:49:43;;;;;;;7.25;4.60;;;;;;;17.95;100.00;100495.62;1739022;82;21040;-60
2022/05/14 08:52:21;;;;;;;6.28;4.08;;;;;;;18.09;100.00;100498.48;1738703;82;21572;-60
2022/05/14 08:54:54;;;;;;;6.03;3.80;;;;;;;18.24;100.00;100494.36;1739518;82;21037;-60
2022/05/14 08:57:48;;;;;;;8.63;3.90;;;;;;;18.77;100.00;100495.87;1738807;82;21565;-59
2022/05/14 09:00:16;;;;;;;5.43;3.60;;;;;;;18.96;100.00;100490.08;1739967;82;21044;-59
2022/05/14 09:02:49;;;;;;;6.35;3.95;;;;;;;19.34;100.00;100492.66;1739735;82;21060;-60
2022/05/14 09:05:35;;;;;;;6.10;3.70;;;;;;;19.27;100.00;100484.52;1739850;82;21071;-60
2022/05/14 09:08:04;;;;;;;5.50;3.70;;;;;;;19.54;100.00;100477.50;1739467;82;21060;-60
2022/05/14 09:10:39;;;;;;;5.70;3.67;;;;;;;19.96;100.00;100476.23;1739606;82;21072;-60
2022/05/14 09:13:20;;;;;;;4.95;3.30;;;;;;;19.97;100.00;100474.43;1739673;82;21513;-60
2022/05/14 09:15:55;;;;;;;6.33;3.72;;;;;;;20.14;100.00;100468.62;1739909;82;21036;-61
2022/05/14 09:18:30;;;;;;;5.17;3.72;;;;;;;20.23;100.00;100461.77;1739977;82;21056;-60
2022/05/14 09:21:07;;;;;;;9.03;3.72;;;;;;;20.60;100.00;100453.42;1740025;82;21536;-60
2022/05/14 09:23:44;;;;;;;4.80;3.27;;;;;;;20.51;100.00;100441.92;1739671;82;21072;-60
2022/05/14 09:26:19;;;;;;;7.03;4.00;;;;;;;20.61;100.00;100432.83;1739893;82;21044;-60
2022/05/14 09:28:57;;;;;;;6.95;3.37;;;;;;;21.14;100.00;100435.56;1739807;82;21509;-60
2022/05/14 09:31:36;;;;;;;6.50;3.40;;;;;;;21.12;100.00;100433.57;1739821;82;20997;-60
2022/05/14 09:34:17;;;;;;;4.53;3.35;;;;;;;20.69;100.00;100434.78;1739783;82;21052;-60
2022/05/14 09:36:51;;;;;;;4.95;2.72;;;;;;;21.21;100.00;100438.81;1739996;82;21492;-60
2022/05/14 09:39:22;;;;;;;6.83;3.27;;;;;;;20.76;100.00;100435.88;1739827;82;21044;-60
2022/05/14 09:41:53;;;;;;;61.70;53.52;;;;;;;20.29;100.00;100437.72;1739897;82;21001;-60
2022/05/14 09:44:37;;;;;;;11.70;6.22;;;;;;;20.16;100.00;100435.83;1739912;82;20981;-60
2022/05/14 09:47:10;;;;;;;18.98;12.47;;;;;;;19.69;100.00;100439.31;1742638;81;20989;-60
2022/05/14 09:49:42;;;;;;;15.45;13.30;;;;;;;19.84;100.00;100422.89;1739616;82;20989;-60
2022/05/14 09:52:13;;;;;;;9.95;6.10;;;;;;;19.70;100.00;100411.77;1739958;82;21099;-60
2022/05/14 09:54:50;;;;;;;7.10;4.70;;;;;;;19.41;100.00;100410.30;1738872;82;21041;-61
2022/05/14 09:57:49;;;;;;;5.62;4.28;;;;;;;19.48;100.00;100407.52;1739769;82;21036;-60
2022/05/14 10:00:27;;;;;;;6.83;4.80;;;;;;;19.52;100.00;100400.27;1735882;82;21037;-60
2022/05/14 10:03:06;;;;;;;7.78;5.85;;;;;;;19.41;100.00;100395.45;1737009;83;21005;-62
2022/05/14 10:05:54;;;;;;;7.03;4.35;;;;;;;19.50;100.00;100396.95;1734986;82;21033;-60
2022/05/14 10:08:50;;;;;;;6.90;4.53;;;;;;;19.94;100.00;100395.84;1737132;83;21095;-60
2022/05/14 10:11:28;;;;;;;9.38;5.03;;;;;;;19.46;100.00;100398.16;1677175;85;21080;-60
2022/05/14 10:14:26;;;;;;;9.43;5.30;;;;;;;19.47;100.00;100396.73;1727615;83;21064;-60
2022/05/14 10:17:39;;;;;;;6.97;5.30;;;;;;;19.69;100.00;100389.70;1736971;83;21044;-61
2022/05/14 10:20:27;;;;;;;4.97;3.60;;;;;;;19.76;100.00;100388.27;1737192;83;21494;-60
2022/05/14 10:29:48;;;;;;;50.08;38.83;;;;;;;20.72;100.00;100380.41;1736987;82;21498;-61
2022/05/14 10:32:21;;;;;;;;;;;;;;;20.71;100.00;100380.53;1739828;82;21032;-61
2022/05/14 10:35:11;;;;;;;36.65;30.08;;;;;;;21.39;100.00;100364.77;1737311;83;20126;-61
2022/05/14 10:37:53;;;;;;;22.73;18.62;;;;;;;21.54;100.00;100350.80;1737411;82;21013;-61
2022/05/14 10:40:40;;;;;;;8.73;4.15;;;;;;;21.64;100.00;100342.91;1736676;82;21520;-62
2022/05/14 10:43:35;;;;;;;44.27;35.10;;;;;;;21.13;100.00;100343.14;1742479;81;21001;-61
2022/05/14 10:46:12;;;;;;;6.47;5.22;;;;;;;21.10;100.00;100347.33;1751263;81;20990;-61
2022/05/14 10:49:17;;;;;;;213.35;159.32;;;;;;;21.19;100.00;100350.42;1750578;81;21103;-62
2022/05/14 10:51:50;;;;;;;43.30;26.97;;;;;;;21.02;100.00;100356.36;1740877;81;21009;-60
2022/05/14 10:54:23;;;;;;;19.75;13.72;;;;;;;20.47;100.00;100356.05;1747494;81;21007;-61
2022/05/14 10:57:02;;;;;;;7.90;5.00;;;;;;;20.53;100.00;100365.95;1752655;81;21031;-61
2022/05/14 10:59:41;;;;;;;7.50;4.05;;;;;;;20.95;100.00;100360.52;1752291;81;21039;-62
2022/05/14 11:02:28;;;;;;;18.82;16.80;;;;;;;20.92;100.00;100364.70;1755586;81;21441;-62
2022/05/14 11:04:56;;;;;;;9.50;4.15;;;;;;;20.72;100.00;100367.33;1754363;81;20975;-63
2022/05/14 11:07:36;;;;;;;8.53;5.67;;;;;;;20.91;100.00;100361.27;1698863;77;21126;-61
2022/05/14 11:10:31;;;;;;;7.37;5.28;;;;;;;20.66;100.00;100361.80;1780118;80;20961;-62
2022/05/14 11:13:23;;;;;;;8.33;4.75;;;;;;;20.38;100.00;100360.30;1742035;81;21011;-62
2022/05/14 11:16:07;;;;;;;31.33;16.60;;;;;;;20.56;100.00;100357.37;1747678;81;21018;-61
2022/05/14 11:18:51;;;;;;;13.60;7.90;;;;;;;20.81;100.00;100351.28;1745947;81;21030;-61
2022/05/14 11:21:22;;;;;;;15.45;12.80;;;;;;;21.16;100.00;100352.49;1728460;81;21010;-62
2022/05/14 11:23:58;;;;;;;104.53;47.40;;;;;;;21.45;100.00;100353.80;1745465;81;21058;-61
2022/05/14 11:26:27;;;;;;;10.70;6.78;;;;;;;21.27;100.00;100364.59;1699635;83;21586;-61
2022/05/14 11:29:11;;;;;;;13.20;6.97;;;;;;;21.16;100.00;100362.97;1748542;81;21042;-61
2022/05/14 11:31:46;;;;;;;10.15;6.03;;;;;;;20.94;100.00;100357.05;1744388;81;21061;-61
2022/05/14 11:34:21;;;;;;;10.55;6.50;;;;;;;20.73;100.00;100368.15;1736666;81;21007;-62
2022/05/14 11:36:54;;;;;;;6.17;4.42;;;;;;;20.61;100.00;100370.88;1747742;81;20994;-62
2022/05/14 11:39:26;;;;;;;10.50;7.22;;;;;;;20.44;100.00;100373.29;1747720;81;21034;-62
2022/05/14 11:42:10;;;;;;;15.20;10.30;;;;;;;20.40;100.00;100371.45;1738834;81;21022;-62
2022/05/14 11:44:48;;;;;;;18.42;11.68;;;;;;;20.37;100.00;100367.30;1748438;81;21047;-62
2022/05/14 11:47:41;;;;;;;10.85;7.50;;;;;;;20.47;100.00;100354.73;1748285;81;20983;-61
2022/05/14 11:50:09;;;;;;;16.17;11.20;;;;;;;20.75;100.00;100362.30;1746793;81;21070;-61
2022/05/14 11:53:02;;;;;;;15.98;9.93;;;;;;;20.85;100.00;100368.36;1746074;81;20998;-62
2022/05/14 11:55:41;;;;;;;9.05;4.95;;;;;;;21.01;100.00;100364.70;1739992;81;20991;-62
2022/05/14 11:58:22;;;;;;;13.48;9.10;;;;;;;21.34;100.00;100369.13;1749581;81;21538;-62
2022/05/14 12:00:53;;;;;;;18.77;12.03;;;;;;;21.48;100.00;100363.15;1758845;81;21027;-61
2022/05/14 12:03:24;;;;;;;14.23;7.35;;;;;;;21.51;100.00;100358.92;1760438;81;21014;-61